Time;durP1;ratioP1;P1;durP2;ratioP2;P2;SDS_P1;SDS_P2;PMS_P1;PMS_P2;Temp;Humidity;BMP_temperature;BMP_pressure;BME280_temperature;BME280_humidity;BME280_pressure;Samples;Min_cycle;Max_cycle;Signal;HPM_P1;HPM_P2
2021/05/03 00:00:02;;;;;;;2.73;2.27;;;5.00;99.90;;;;;;5076752;28;20459;-72
2021/05/03 00:02:32;;;;;;;4.87;2.83;;;4.90;99.90;;;;;;5059783;28;20453;-71
2021/05/03 00:04:59;;;;;;;4.23;3.83;;;4.90;99.90;;;;;;5071797;28;20547;-73
2021/05/03 00:07:25;;;;;;;3.80;2.63;;;4.90;99.90;;;;;;5052756;28;20463;-72
2021/05/03 00:09:52;;;;;;;5.07;3.53;;;4.80;99.90;;;;;;5057530;28;20576;-72
2021/05/03 00:12:19;;;;;;;4.30;3.00;;;4.70;99.90;;;;;;5082031;28;20531;-72
2021/05/03 00:14:46;;;;;;;7.00;3.23;;;4.70;99.90;;;;;;5054388;28;20479;-73
2021/05/03 00:17:12;;;;;;;4.37;3.67;;;4.80;99.90;;;;;;5054073;28;20911;-71
2021/05/03 00:19:40;;;;;;;13.90;3.50;;;4.80;99.90;;;;;;5069810;28;20478;-73
2021/05/03 00:22:07;;;;;;;3.40;3.00;;;4.80;99.90;;;;;;5051958;28;20492;-72
2021/05/03 00:24:33;;;;;;;3.87;2.70;;;4.70;99.90;;;;;;5049786;28;20543;-71
2021/05/03 00:27:00;;;;;;;8.73;3.90;;;4.80;99.90;;;;;;5066991;28;20500;-73
2021/05/03 00:29:27;;;;;;;10.73;3.70;;;4.70;99.90;;;;;;5071714;28;20545;-73
2021/05/03 00:31:54;;;;;;;7.10;3.30;;;4.70;99.90;;;;;;5075982;28;20457;-72
2021/05/03 00:34:20;;;;;;;4.17;2.83;;;4.80;99.90;;;;;;5077995;28;20547;-72
2021/05/03 00:36:48;;;;;;;2.97;2.50;;;5.00;99.90;;;;;;5054741;28;26905;-73
2021/05/03 00:39:15;;;;;;;5.23;3.10;;;5.00;99.90;;;;;;5059916;28;20455;-71
2021/05/03 00:41:42;;;;;;;3.70;2.30;;;5.00;99.90;;;;;;5035335;28;20432;-71
2021/05/03 00:44:08;;;;;;;5.90;4.13;;;4.80;99.90;;;;;;5051708;28;20470;-73
2021/05/03 00:46:35;;;;;;;10.90;4.47;;;4.80;99.90;;;;;;5069098;28;20523;-74
2021/05/03 00:49:01;;;;;;;3.60;2.83;;;4.90;99.90;;;;;;5071492;28;22408;-72
2021/05/03 00:51:29;;;;;;;3.93;3.17;;;4.90;99.90;;;;;;5056100;28;20541;-72
2021/05/03 00:53:57;;;;;;;5.43;3.70;;;4.90;99.90;;;;;;5070586;28;20498;-72
2021/05/03 00:56:23;;;;;;;4.23;3.10;;;4.90;99.90;;;;;;5053211;28;20493;-72
2021/05/03 00:58:50;;;;;;;4.30;3.20;;;5.00;99.90;;;;;;5068563;28;20981;-72
2021/05/03 01:01:17;;;;;;;2.70;2.47;;;5.00;99.90;;;;;;5070997;28;20485;-73
2021/05/03 01:03:43;;;;;;;3.33;2.40;;;4.90;99.90;;;;;;5048718;28;20436;-72
2021/05/03 01:06:10;;;;;;;4.23;3.37;;;4.90;99.90;;;;;;5071421;28;20477;-72
2021/05/03 01:08:37;;;;;;;3.50;3.00;;;4.90;99.90;;;;;;5068352;28;20432;-72
2021/05/03 01:11:04;;;;;;;3.87;2.43;;;4.80;99.90;;;;;;5054449;28;20545;-73
2021/05/03 01:13:31;;;;;;;5.00;2.10;;;4.80;99.90;;;;;;5072761;28;20965;-71
2021/05/03 01:15:57;;;;;;;2.93;2.40;;;4.70;99.90;;;;;;5057953;28;21163;-71
2021/05/03 01:18:25;;;;;;;6.33;3.07;;;4.60;99.90;;;;;;5052173;28;20540;-71
2021/05/03 01:20:55;;;;;;;4.60;3.13;;;4.50;99.90;;;;;;5052757;28;20489;-71
2021/05/03 01:23:22;;;;;;;6.13;2.47;;;4.50;99.90;;;;;;5072481;28;20834;-72
2021/05/03 01:25:49;;;;;;;3.37;2.97;;;4.50;99.90;;;;;;5069585;28;20505;-72
2021/05/03 01:28:15;;;;;;;5.60;4.00;;;4.40;99.90;;;;;;5064880;28;20448;-73
2021/05/03 01:30:44;;;;;;;3.90;3.00;;;4.30;99.90;;;;;;5090078;28;20450;-72
2021/05/03 01:33:12;;;;;;;2.80;2.50;;;4.20;99.90;;;;;;5086415;28;20436;-73
2021/05/03 01:35:39;;;;;;;4.77;2.23;;;4.10;99.90;;;;;;5084922;28;20524;-73
2021/05/03 01:38:08;;;;;;;5.00;2.30;;;4.00;99.90;;;;;;5067255;28;21063;-71
2021/05/03 01:40:37;;;;;;;4.03;3.27;;;4.20;99.90;;;;;;5066201;28;26162;-72
2021/05/03 01:43:12;;;;;;;5.30;2.47;;;4.30;99.90;;;;;;5071485;28;20458;-71
2021/05/03 01:45:40;;;;;;;5.10;4.10;;;4.10;99.90;;;;;;5066873;28;20454;-73
2021/05/03 01:48:08;;;;;;;6.60;3.23;;;4.00;99.90;;;;;;5069946;28;20424;-71
2021/05/03 01:50:35;;;;;;;5.03;3.80;;;3.90;99.90;;;;;;5070189;28;20462;-71
2021/05/03 01:53:03;;;;;;;4.93;3.60;;;4.00;99.90;;;;;;5071316;28;20453;-72
2021/05/03 01:55:30;;;;;;;9.13;4.23;;;4.10;99.90;;;;;;5062800;28;21052;-71
2021/05/03 01:57:57;;;;;;;3.73;3.33;;;4.20;99.90;;;;;;5046806;28;20484;-72
2021/05/03 02:00:24;;;;;;;3.90;2.63;;;4.40;99.90;;;;;;5073453;28;20906;-73
2021/05/03 02:02:50;;;;;;;4.90;3.30;;;4.50;99.90;;;;;;5052269;28;20554;-72
2021/05/03 02:05:19;;;;;;;6.07;3.80;;;4.60;99.90;;;;;;5062052;28;20627;-72
2021/05/03 02:07:46;;;;;;;4.40;4.00;;;4.60;99.90;;;;;;5068519;28;20563;-72
2021/05/03 02:10:13;;;;;;;5.13;3.47;;;4.70;99.90;;;;;;5052754;28;20462;-71
2021/05/03 02:12:41;;;;;;;6.43;3.40;;;4.80;99.90;;;;;;5072594;28;20603;-73
2021/05/03 02:15:09;;;;;;;4.57;2.97;;;4.80;99.90;;;;;;5072194;28;20571;-71
2021/05/03 02:17:36;;;;;;;8.87;3.67;;;4.80;99.90;;;;;;5065876;28;20461;-71
2021/05/03 02:20:03;;;;;;;4.73;3.20;;;4.90;99.90;;;;;;5067916;28;20238;-73
2021/05/03 02:22:29;;;;;;;6.20;4.73;;;4.70;99.90;;;;;;5068161;28;20671;-71
2021/05/03 02:24:56;;;;;;;2.73;2.40;;;4.60;99.90;;;;;;5051914;28;20930;-71
2021/05/03 02:27:22;;;;;;;6.73;3.80;;;4.50;99.90;;;;;;5055304;28;21836;-71
2021/05/03 02:29:50;;;;;;;6.23;3.70;;;4.40;99.90;;;;;;5067389;28;20534;-71
2021/05/03 02:32:17;;;;;;;7.47;3.63;;;4.30;99.90;;;;;;5071963;28;20980;-72
2021/05/03 02:34:43;;;;;;;3.50;2.43;;;4.30;99.90;;;;;;5075101;28;20447;-72
2021/05/03 02:37:10;;;;;;;7.70;4.30;;;4.30;99.90;;;;;;5069205;28;20463;-74
2021/05/03 02:39:41;;;;;;;5.63;3.30;;;4.20;99.90;;;;;;5068536;28;20456;-73
2021/05/03 02:42:08;;;;;;;3.60;3.30;;;4.20;99.90;;;;;;5052885;28;20462;-71
2021/05/03 02:44:38;;;;;;;3.37;3.07;;;4.20;99.90;;;;;;5074896;28;20561;-70
2021/05/03 02:47:06;;;;;;;5.93;3.80;;;4.20;99.90;;;;;;5071618;28;20480;-72
2021/05/03 02:49:34;;;;;;;8.57;4.53;;;4.20;99.90;;;;;;5073401;28;20449;-71
2021/05/03 02:52:01;;;;;;;3.93;2.60;;;4.10;99.90;;;;;;5070027;28;20679;-72
2021/05/03 02:54:28;;;;;;;4.90;3.50;;;4.10;99.90;;;;;;5074093;28;20959;-71
2021/05/03 02:56:54;;;;;;;4.67;2.90;;;4.20;99.90;;;;;;5077034;28;20486;-71
2021/05/03 02:59:21;;;;;;;3.60;2.17;;;4.30;99.90;;;;;;5076434;28;20452;-71
2021/05/03 03:01:48;;;;;;;4.10;3.70;;;4.30;99.90;;;;;;5058137;28;20429;-71
2021/05/03 03:04:16;;;;;;;5.30;4.50;;;4.40;99.90;;;;;;5053107;28;20452;-72
2021/05/03 03:06:43;;;;;;;5.33;4.27;;;4.40;99.90;;;;;;5053925;28;20513;-72
2021/05/03 03:09:10;;;;;;;6.00;4.27;;;4.50;99.90;;;;;;5073297;28;20969;-71
2021/05/03 03:11:37;;;;;;;6.67;3.00;;;4.40;99.90;;;;;;5062284;28;20533;-70
2021/05/03 03:14:04;;;;;;;5.77;4.57;;;4.30;99.90;;;;;;5062735;28;20480;-72
2021/05/03 03:16:31;;;;;;;6.00;3.67;;;4.50;99.90;;;;;;5069122;28;20499;-72
2021/05/03 03:18:59;;;;;;;8.03;4.37;;;4.50;99.90;;;;;;5073307;28;20845;-70
2021/05/03 03:21:30;;;;;;;7.40;3.73;;;4.60;99.90;;;;;;5082128;28;20982;-70
2021/05/03 03:23:57;;;;;;;6.87;3.23;;;4.50;99.90;;;;;;5077258;28;20999;-69
2021/05/03 03:26:24;;;;;;;4.87;3.60;;;4.40;99.90;;;;;;5087720;28;20541;-72
2021/05/03 03:28:51;;;;;;;3.10;2.70;;;4.40;99.90;;;;;;5074827;28;20482;-71
2021/05/03 03:31:18;;;;;;;5.40;3.50;;;4.30;99.90;;;;;;5082762;28;20898;-70
2021/05/03 03:33:45;;;;;;;5.07;4.10;;;4.20;99.90;;;;;;5077900;28;20928;-71
2021/05/03 03:36:11;;;;;;;5.63;4.27;;;4.20;99.90;;;;;;5064664;28;20795;-69
2021/05/03 03:38:39;;;;;;;5.20;3.77;;;4.10;99.90;;;;;;5060165;28;20772;-72
2021/05/03 03:41:05;;;;;;;4.20;3.80;;;4.20;99.90;;;;;;5083437;28;20473;-71
2021/05/03 03:43:32;;;;;;;5.70;3.53;;;4.10;99.90;;;;;;5079805;28;20538;-71
2021/05/03 03:45:59;;;;;;;6.07;4.23;;;4.10;99.90;;;;;;5075732;28;20523;-70
2021/05/03 03:48:25;;;;;;;5.53;3.77;;;4.10;99.90;;;;;;5078008;28;20860;-73
2021/05/03 03:50:52;;;;;;;5.13;4.20;;;4.10;99.90;;;;;;5079072;28;20514;-73
2021/05/03 03:53:19;;;;;;;6.80;4.83;;;4.00;99.90;;;;;;5077291;28;20472;-73
2021/05/03 03:55:46;;;;;;;4.33;3.37;;;4.00;99.90;;;;;;5075616;28;20465;-71
2021/05/03 03:58:13;;;;;;;4.90;4.30;;;4.10;99.90;;;;;;5076686;28;20477;-72
2021/05/03 04:00:39;;;;;;;7.47;4.47;;;4.30;99.90;;;;;;5058962;28;20471;-71
2021/05/03 04:03:09;;;;;;;4.90;4.40;;;4.20;99.90;;;;;;5064715;28;20579;-72
2021/05/03 04:05:51;;;;;;;10.40;4.63;;;4.20;99.90;;;;;;5072188;28;20485;-72
2021/05/03 04:08:22;;;;;;;4.87;4.47;;;4.20;99.90;;;;;;5072799;28;20416;-72
2021/05/03 04:10:57;;;;;;;8.83;5.40;;;4.30;99.90;;;;;;5033097;28;20425;-72
2021/05/03 04:13:40;;;;;;;3.73;3.43;;;4.30;99.90;;;;;;5073386;28;20444;-73
2021/05/03 04:21:50;;;;;;;7.50;4.03;;;4.50;99.90;;;;;;5009688;28;20886;-70
2021/05/03 04:24:21;;;;;;;9.33;5.80;;;4.30;99.90;;;;;;5075449;28;20476;-72
2021/05/03 04:26:49;;;;;;;8.23;4.20;;;4.40;99.90;;;;;;5071461;28;20819;-72
2021/05/03 04:29:15;;;;;;;4.30;3.90;;;4.50;99.90;;;;;;5074558;28;20483;-71
2021/05/03 04:31:42;;;;;;;4.10;3.20;;;4.50;99.90;;;;;;5078163;28;20483;-72
2021/05/03 04:34:08;;;;;;;6.40;2.87;;;4.60;99.90;;;;;;5081026;28;20509;-72
2021/05/03 04:36:35;;;;;;;6.67;3.87;;;4.50;99.90;;;;;;5075735;28;20498;-73
2021/05/03 04:39:02;;;;;;;5.87;3.00;;;4.50;99.90;;;;;;5078044;28;20463;-71
2021/05/03 04:41:28;;;;;;;7.90;4.30;;;4.60;99.90;;;;;;5058490;28;20557;-73
2021/05/03 04:43:56;;;;;;;5.50;3.63;;;4.60;99.90;;;;;;5059007;28;20539;-73
2021/05/03 04:46:23;;;;;;;5.57;3.57;;;4.90;99.90;;;;;;5049633;28;20476;-72
2021/05/03 04:48:50;;;;;;;6.70;3.73;;;4.90;99.90;;;;;;5080780;28;20516;-73
2021/05/03 04:51:16;;;;;;;6.30;4.03;;;5.20;99.90;;;;;;5081455;28;20477;-74
2021/05/03 04:53:43;;;;;;;5.87;4.27;;;5.50;99.90;;;;;;5075025;28;20484;-72
2021/05/03 04:56:09;;;;;;;3.13;2.77;;;5.30;99.90;;;;;;5072804;28;20586;-73
2021/05/03 04:58:36;;;;;;;11.80;5.07;;;5.50;99.90;;;;;;5066578;28;20926;-72
2021/05/03 05:01:03;;;;;;;3.57;2.87;;;5.80;99.90;;;;;;5071835;28;20472;-72
2021/05/03 05:03:30;;;;;;;6.43;5.07;;;6.30;99.90;;;;;;5067021;28;20549;-73
2021/05/03 05:05:56;;;;;;;4.30;3.57;;;6.20;99.90;;;;;;5060502;28;20480;-73
2021/05/03 05:08:23;;;;;;;6.10;3.50;;;6.60;99.90;;;;;;5076993;28;20907;-72
2021/05/03 05:10:50;;;;;;;7.63;4.70;;;6.80;99.90;;;;;;5076521;28;20450;-72
2021/05/03 05:13:17;;;;;;;5.00;3.90;;;7.10;99.90;;;;;;5062871;28;20470;-72
2021/05/03 05:15:43;;;;;;;7.10;4.03;;;7.30;99.90;;;;;;5062139;28;20483;-73
2021/05/03 05:18:12;;;;;;;5.03;3.13;;;7.30;99.90;;;;;;5081051;28;20457;-73
2021/05/03 05:20:41;;;;;;;5.30;4.27;;;7.50;99.90;;;;;;5085482;28;20468;-72
2021/05/03 05:23:09;;;;;;;4.93;3.60;;;7.60;99.90;;;;;;5077970;28;20429;-72
2021/05/03 05:25:35;;;;;;;2.47;1.97;;;7.60;99.90;;;;;;5057606;28;20474;-72
2021/05/03 05:28:02;;;;;;;3.63;2.60;;;7.90;99.90;;;;;;5076194;28;20559;-74
2021/05/03 05:30:29;;;;;;;11.97;4.70;;;8.00;99.90;;;;;;5077511;28;21032;-72
2021/05/03 05:32:55;;;;;;;3.77;3.47;;;8.20;99.90;;;;;;5078870;28;20440;-73
2021/05/03 05:35:23;;;;;;;3.93;2.83;;;8.50;99.90;;;;;;5062121;28;20848;-71
2021/05/03 05:37:50;;;;;;;5.40;3.60;;;8.60;99.90;;;;;;5074098;28;20420;-71
2021/05/03 05:40:17;;;;;;;6.73;4.30;;;8.70;99.90;;;;;;5081729;28;20484;-72
2021/05/03 05:42:43;;;;;;;5.77;5.17;;;9.00;99.90;;;;;;5085777;28;20432;-72
2021/05/03 05:45:12;;;;;;;3.60;3.07;;;9.20;99.90;;;;;;5087243;28;20491;-72
2021/05/03 05:47:39;;;;;;;3.10;2.50;;;9.20;99.90;;;;;;5078892;28;20971;-73
2021/05/03 05:50:06;;;;;;;5.60;3.37;;;9.20;99.90;;;;;;5071242;28;20601;-73
2021/05/03 05:52:34;;;;;;;8.10;3.37;;;9.40;99.90;;;;;;5078632;28;20562;-74
2021/05/03 05:55:00;;;;;;;6.23;4.30;;;9.50;99.90;;;;;;5077423;28;20493;-72
2021/05/03 05:57:27;;;;;;;3.53;3.20;;;9.70;99.90;;;;;;5081275;28;20467;-72
2021/05/03 05:59:53;;;;;;;4.80;3.50;;;9.90;99.90;;;;;;5083480;28;20568;-72
2021/05/03 06:02:20;;;;;;;5.67;3.57;;;10.00;99.90;;;;;;5083666;28;20823;-72
2021/05/03 06:04:47;;;;;;;6.57;3.40;;;10.60;99.90;;;;;;5061167;28;20543;-73
2021/05/03 06:07:13;;;;;;;3.63;3.30;;;10.90;99.90;;;;;;5075869;28;20819;-73
2021/05/03 06:09:41;;;;;;;5.97;4.10;;;10.80;99.90;;;;;;5063640;28;20540;-73
2021/05/03 06:12:08;;;;;;;5.63;3.83;;;10.80;99.90;;;;;;5058128;28;20462;-72
2021/05/03 06:14:35;;;;;;;8.93;4.50;;;11.00;99.90;;;;;;5086918;28;20478;-73
2021/05/03 06:17:02;;;;;;;7.33;3.30;;;11.40;99.90;;;;;;5057305;28;20604;-73
2021/05/03 06:19:29;;;;;;;7.80;3.77;;;11.50;99.90;;;;;;5080349;28;20506;-75
2021/05/03 06:21:55;;;;;;;5.00;3.60;;;11.20;99.90;;;;;;5060702;28;20428;-73
2021/05/03 06:24:22;;;;;;;6.13;3.53;;;11.20;99.90;;;;;;5081428;28;20470;-72
2021/05/03 06:26:49;;;;;;;4.33;2.87;;;11.00;99.90;;;;;;5079048;28;20512;-71
2021/05/03 06:29:16;;;;;;;4.47;2.43;;;11.10;99.90;;;;;;5064501;28;20538;-72
2021/05/03 06:31:45;;;;;;;4.03;3.57;;;11.20;99.90;;;;;;5063113;28;20891;-70
2021/05/03 06:34:12;;;;;;;5.17;3.57;;;11.30;99.90;;;;;;5065251;28;20497;-74
2021/05/03 06:36:39;;;;;;;4.13;3.00;;;11.50;99.90;;;;;;5083826;28;20465;-72
2021/05/03 06:39:06;;;;;;;4.60;2.93;;;11.60;99.90;;;;;;5081051;28;20482;-73
2021/05/03 06:41:32;;;;;;;3.37;2.70;;;11.90;99.90;;;;;;5093262;28;20511;-72
2021/05/03 06:44:00;;;;;;;3.13;2.83;;;11.70;99.90;;;;;;5057958;28;20985;-73
2021/05/03 06:46:27;;;;;;;3.80;3.43;;;11.70;99.90;;;;;;5062348;28;20540;-72
2021/05/03 06:48:53;;;;;;;4.03;3.10;;;12.10;99.90;;;;;;5064085;28;20457;-71
2021/05/03 06:51:20;;;;;;;3.33;2.80;;;12.00;99.90;;;;;;5059956;28;21001;-72
2021/05/03 06:53:46;;;;;;;4.13;2.27;;;11.60;99.90;;;;;;5082927;28;20978;-71
2021/05/03 06:56:13;;;;;;;4.33;2.30;;;11.40;99.90;;;;;;5081914;28;20790;-72
2021/05/03 06:58:40;;;;;;;5.87;4.00;;;11.10;99.90;;;;;;5080168;28;20478;-72
2021/05/03 07:01:07;;;;;;;3.50;2.03;;;10.90;99.90;;;;;;5040291;28;20497;-72
2021/05/03 07:03:34;;;;;;;4.47;3.00;;;10.80;99.90;;;;;;5078235;28;20436;-70
2021/05/03 07:06:01;;;;;;;2.63;2.00;;;10.60;99.90;;;;;;5077238;28;20527;-73
2021/05/03 07:08:27;;;;;;;3.70;2.20;;;10.60;99.90;;;;;;5048681;28;20488;-71
2021/05/03 07:10:54;;;;;;;3.47;2.60;;;10.70;99.90;;;;;;5082950;28;20768;-71
2021/05/03 07:13:21;;;;;;;3.40;3.10;;;10.90;99.90;;;;;;5066960;28;20455;-72
2021/05/03 07:15:48;;;;;;;3.63;2.50;;;11.20;99.90;;;;;;5067267;28;21014;-71
2021/05/03 07:18:15;;;;;;;4.80;3.07;;;11.20;99.90;;;;;;5086251;28;20769;-73
2021/05/03 07:20:42;;;;;;;2.37;2.10;;;10.90;99.90;;;;;;5063803;28;20513;-71
2021/05/03 07:23:09;;;;;;;3.63;2.77;;;11.00;99.90;;;;;;5077729;28;20538;-73
2021/05/03 07:25:36;;;;;;;3.77;3.37;;;11.10;99.90;;;;;;5066797;28;20491;-71
2021/05/03 07:28:04;;;;;;;4.73;3.00;;;11.00;99.90;;;;;;5060196;28;20519;-74
2021/05/03 07:30:31;;;;;;;3.30;2.37;;;11.30;99.90;;;;;;5087563;28;20412;-73
2021/05/03 07:32:57;;;;;;;12.13;2.30;;;11.60;99.90;;;;;;5089585;28;20454;-72
2021/05/03 07:35:25;;;;;;;4.40;2.77;;;11.70;99.90;;;;;;5069852;28;20473;-72
2021/05/03 07:37:52;;;;;;;3.50;3.17;;;11.80;99.90;;;;;;5077446;28;20477;-72
2021/05/03 07:40:18;;;;;;;6.33;4.20;;;12.00;99.90;;;;;;5085288;28;21088;-72
2021/05/03 07:42:45;;;;;;;3.37;3.00;;;12.50;99.90;;;;;;5066759;28;20511;-73
2021/05/03 07:45:15;;;;;;;5.37;2.47;;;12.70;99.90;;;;;;5090083;28;20484;-72
2021/05/03 07:47:42;;;;;;;3.70;3.30;;;12.90;99.90;;;;;;5083729;28;20989;-73
2021/05/03 07:50:10;;;;;;;4.83;2.67;;;13.50;99.90;;;;;;5079575;28;20417;-73
2021/05/03 07:52:38;;;;;;;3.50;2.03;;;13.80;99.90;;;;;;5078912;28;20820;-72
2021/05/03 07:55:05;;;;;;;5.30;3.17;;;13.90;99.90;;;;;;5079381;28;20515;-72
2021/05/03 07:57:32;;;;;;;7.40;3.57;;;14.40;99.90;;;;;;5076987;28;20493;-72
2021/05/03 07:59:59;;;;;;;7.37;3.53;;;14.10;97.00;;;;;;5077301;28;20493;-73
2021/05/03 08:02:25;;;;;;;4.70;3.33;;;14.40;96.90;;;;;;5081731;28;20996;-74
2021/05/03 08:04:52;;;;;;;5.97;3.40;;;14.70;95.70;;;;;;5078316;28;20500;-71
2021/05/03 08:07:19;;;;;;;3.30;2.80;;;15.10;96.00;;;;;;5062648;28;20975;-72
2021/05/03 08:09:47;;;;;;;5.77;2.77;;;15.60;91.00;;;;;;5059798;28;20450;-72
2021/05/03 08:12:13;;;;;;;3.07;1.60;;;15.80;89.10;;;;;;5059158;28;20558;-71
2021/05/03 08:14:40;;;;;;;2.47;2.17;;;15.40;89.00;;;;;;5078669;28;20448;-72
2021/05/03 08:17:09;;;;;;;6.73;2.53;;;15.40;87.60;;;;;;5079969;28;20935;-71
2021/05/03 08:19:36;;;;;;;2.50;1.90;;;15.20;84.40;;;;;;5080237;28;21042;-72
2021/05/03 08:22:03;;;;;;;1.90;1.70;;;15.30;82.20;;;;;;5082687;28;20975;-72
2021/05/03 08:24:31;;;;;;;2.87;1.40;;;15.40;78.20;;;;;;5088389;28;20482;-71
2021/05/03 08:27:00;;;;;;;2.20;2.00;;;16.40;78.40;;;;;;5086229;28;20556;-72
2021/05/03 08:29:27;;;;;;;5.23;1.70;;;17.00;72.80;;;;;;5079997;28;20454;-71
2021/05/03 08:31:56;;;;;;;5.13;2.70;;;17.20;72.00;;;;;;5063496;28;20810;-73
2021/05/03 08:34:22;;;;;;;2.63;1.87;;;17.80;69.70;;;;;;5083738;28;20955;-71
2021/05/03 08:36:50;;;;;;;2.47;1.33;;;18.00;64.60;;;;;;5084448;28;21043;-73
2021/05/03 08:39:16;;;;;;;3.70;2.63;;;18.00;61.90;;;;;;5087929;28;21056;-72
2021/05/03 08:41:43;;;;;;;3.27;2.17;;;17.50;63.30;;;;;;5064039;28;20515;-71
2021/05/03 08:44:10;;;;;;;2.00;1.30;;;17.40;62.10;;;;;;5074821;28;20477;-71
2021/05/03 08:46:42;;;;;;;2.07;1.60;;;17.20;62.20;;;;;;5058238;28;20525;-72
2021/05/03 08:49:16;;;;;;;2.70;2.40;;;17.30;61.70;;;;;;5079628;28;20446;-73
2021/05/03 08:51:46;;;;;;;2.60;2.13;;;17.00;64.00;;;;;;5059503;28;20465;-72
2021/05/03 08:54:20;;;;;;;4.57;2.90;;;17.20;62.40;;;;;;5079599;28;20517;-72
2021/05/03 08:56:46;;;;;;;6.10;2.60;;;17.20;62.20;;;;;;5077651;28;25003;-72
2021/05/03 08:59:14;;;;;;;3.83;3.07;;;17.10;62.20;;;;;;5075827;28;20549;-71
2021/05/03 09:01:43;;;;;;;4.53;2.83;;;17.70;63.10;;;;;;5079860;28;20489;-72
2021/05/03 09:04:10;;;;;;;7.60;3.13;;;18.30;62.20;;;;;;5081754;28;20565;-72
2021/05/03 09:06:37;;;;;;;4.50;3.00;;;18.90;59.80;;;;;;5083304;28;20469;-72
2021/05/03 09:09:06;;;;;;;2.73;1.70;;;19.10;58.30;;;;;;5065184;28;20453;-72
2021/05/03 09:11:34;;;;;;;4.90;2.60;;;18.20;58.00;;;;;;5080946;28;20461;-72
2021/05/03 09:14:08;;;;;;;6.33;2.73;;;18.40;58.50;;;;;;5078520;28;20505;-72
2021/05/03 09:16:42;;;;;;;3.13;2.53;;;18.50;59.10;;;;;;5078537;28;20460;-73
2021/05/03 09:19:10;;;;;;;2.83;2.30;;;19.60;57.80;;;;;;5074847;28;20509;-73
2021/05/03 09:21:37;;;;;;;5.73;3.57;;;19.50;55.50;;;;;;5084905;28;20455;-72
2021/05/03 09:24:11;;;;;;;3.33;3.03;;;18.80;54.20;;;;;;5079876;28;20489;-72
2021/05/03 09:26:46;;;;;;;3.70;3.40;;;18.40;56.10;;;;;;5078123;28;20785;-72
2021/05/03 09:29:34;;;;;;;3.23;2.93;;;18.10;57.00;;;;;;5080499;28;20815;-73
2021/05/03 09:32:04;;;;;;;2.33;2.13;;;18.40;55.10;;;;;;5075907;28;20496;-71
2021/05/03 09:34:32;;;;;;;6.50;3.00;;;19.10;54.10;;;;;;5075316;28;20502;-72
2021/05/03 09:37:20;;;;;;;3.90;3.00;;;19.20;52.70;;;;;;5077756;28;20458;-72
2021/05/03 09:39:52;;;;;;;2.80;2.50;;;18.90;52.60;;;;;;5080778;28;20628;-72
2021/05/03 09:42:19;;;;;;;5.67;3.00;;;18.90;53.80;;;;;;5075120;28;20850;-72
2021/05/03 09:45:09;;;;;;;4.73;2.43;;;19.20;53.00;;;;;;5077157;28;20500;-75
2021/05/03 09:47:37;;;;;;;2.60;2.20;;;19.70;52.00;;;;;;5078198;28;20525;-73
2021/05/03 09:50:09;;;;;;;3.77;2.97;;;19.80;51.50;;;;;;5082841;28;20824;-73
2021/05/03 09:52:36;;;;;;;9.23;2.50;;;19.60;52.30;;;;;;5084518;28;20452;-72
2021/05/03 09:55:04;;;;;;;4.13;3.73;;;19.70;52.00;;;;;;5081529;28;20535;-72
2021/05/03 09:57:30;;;;;;;6.77;3.60;;;19.30;51.70;;;;;;5080547;28;20487;-70
2021/05/03 10:00:00;;;;;;;7.43;2.93;;;19.20;52.20;;;;;;5084264;28;20505;-71
2021/05/03 10:02:29;;;;;;;12.40;3.67;;;19.50;51.70;;;;;;5080454;28;20462;-72
2021/05/03 10:04:59;;;;;;;3.23;2.87;;;19.60;51.60;;;;;;5074564;28;20582;-71
2021/05/03 10:07:28;;;;;;;2.47;2.13;;;19.60;51.60;;;;;;5079329;28;20458;-71
2021/05/03 10:10:01;;;;;;;4.70;2.90;;;18.80;52.10;;;;;;5082756;28;20459;-70
2021/05/03 10:12:28;;;;;;;4.40;3.67;;;19.20;53.20;;;;;;5086110;28;20486;-72
2021/05/03 10:14:57;;;;;;;3.83;2.63;;;20.30;53.60;;;;;;5084879;28;20893;-72
2021/05/03 10:17:24;;;;;;;4.50;3.17;;;21.40;50.70;;;;;;5078149;28;20529;-71
2021/05/03 10:19:52;;;;;;;4.63;3.17;;;21.50;49.60;;;;;;5079120;28;20735;-71
2021/05/03 10:22:22;;;;;;;6.50;3.53;;;20.10;49.50;;;;;;5080166;28;20461;-72
2021/05/03 10:24:51;;;;;;;4.93;4.37;;;19.90;51.00;;;;;;5079776;28;20527;-72
2021/05/03 10:27:20;;;;;;;5.60;3.60;;;20.00;50.60;;;;;;5083917;28;20847;-71
2021/05/03 10:29:49;;;;;;;6.73;4.10;;;20.60;49.40;;;;;;5079506;28;20481;-71
2021/05/03 10:32:22;;;;;;;4.87;3.80;;;20.30;49.90;;;;;;5082581;28;20457;-71
2021/05/03 10:34:50;;;;;;;3.33;2.90;;;21.00;49.90;;;;;;5079249;28;20560;-71
2021/05/03 10:37:51;;;;;;;2.53;2.30;;;20.60;48.40;;;;;;5078707;28;20956;-71
2021/05/03 10:40:48;;;;;;;6.87;4.07;;;20.40;49.20;;;;;;5083200;28;20507;-72
2021/05/03 10:43:18;;;;;;;5.40;3.80;;;20.30;50.30;;;;;;5084126;28;20485;-72
2021/05/03 10:45:58;;;;;;;5.03;3.50;;;20.10;49.00;;;;;;5085124;28;20872;-72
2021/05/03 10:48:38;;;;;;;4.00;2.70;;;20.20;50.20;;;;;;5077591;28;20455;-72
2021/05/03 10:51:09;;;;;;;7.30;3.43;;;19.70;48.90;;;;;;5083153;28;20445;-71
2021/05/03 10:53:39;;;;;;;11.83;3.53;;;19.00;50.00;;;;;;5080098;28;20815;-70
2021/05/03 10:56:07;;;;;;;3.73;2.27;;;19.30;52.00;;;;;;5086196;28;20507;-72
2021/05/03 10:59:07;;;;;;;5.47;3.63;;;20.50;49.60;;;;;;5081125;28;20563;-72
2021/05/03 11:02:08;;;;;;;7.50;3.47;;;21.30;47.90;;;;;;5080408;28;20450;-73
2021/05/03 11:04:37;;;;;;;4.90;4.00;;;21.40;46.30;;;;;;5083569;28;20493;-73
2021/05/03 11:07:07;;;;;;;9.53;4.43;;;19.70;46.50;;;;;;5083369;28;20457;-72
2021/05/03 11:09:53;;;;;;;3.53;2.43;;;18.60;48.70;;;;;;5084796;28;20919;-73
2021/05/03 11:12:30;;;;;;;3.27;2.83;;;18.10;48.70;;;;;;5073406;28;20466;-73
2021/05/03 11:15:18;;;;;;;4.37;2.77;;;17.90;48.40;;;;;;5077790;28;20473;-72
2021/05/03 11:18:25;;;;;;;4.40;3.70;;;18.00;49.50;;;;;;5080222;28;20482;-72
2021/05/03 11:20:58;;;;;;;3.93;3.57;;;19.10;48.90;;;;;;5062347;28;20485;-72
2021/05/03 11:23:30;;;;;;;20.17;4.17;;;19.20;48.50;;;;;;5080640;28;20463;-71
2021/05/03 11:25:58;;;;;;;4.10;3.33;;;18.60;48.20;;;;;;5083320;28;20477;-71
2021/05/03 11:28:29;;;;;;;5.97;4.73;;;18.40;48.60;;;;;;5074929;28;20496;-72
2021/05/03 11:30:59;;;;;;;5.20;3.50;;;18.00;50.10;;;;;;5081001;28;20515;-71
2021/05/03 11:33:36;;;;;;;5.03;3.10;;;17.80;49.80;;;;;;5079846;28;20465;-72
2021/05/03 11:36:12;;;;;;;4.10;3.37;;;17.70;51.30;;;;;;5082168;28;20539;-72
2021/05/03 11:38:57;;;;;;;4.63;3.97;;;17.40;50.40;;;;;;5074293;28;20454;-73
2021/05/03 11:44:21;;;;;;;3.80;2.37;;;16.50;52.20;;;;;;5080402;28;20517;-73
2021/05/03 11:46:47;;;;;;;4.67;3.23;;;16.70;51.70;;;;;;5084498;28;20462;-72
2021/05/03 11:49:17;;;;;;;4.17;3.63;;;16.50;51.90;;;;;;5081444;28;21282;-72
2021/05/03 11:51:45;;;;;;;3.40;3.10;;;16.50;52.70;;;;;;5088627;28;20876;-73
2021/05/03 11:54:28;;;;;;;3.03;2.73;;;16.50;51.70;;;;;;5078388;28;20811;-71
2021/05/03 11:56:57;;;;;;;3.10;1.83;;;16.60;51.80;;;;;;5088249;28;20468;-74
2021/05/03 11:59:24;;;;;;;4.43;3.33;;;16.90;50.80;;;;;;5080475;28;20605;-73
2021/05/03 12:02:01;;;;;;;4.47;2.73;;;17.30;50.70;;;;;;5077536;28;20458;-74
2021/05/03 12:04:39;;;;;;;4.50;2.57;;;18.00;50.10;;;;;;5077831;28;20489;-71
2021/05/03 12:07:24;;;;;;;3.70;3.27;;;18.20;49.00;;;;;;5079037;28;20454;-71
2021/05/03 12:10:01;;;;;;;4.80;2.73;;;18.30;48.90;;;;;;5081245;28;20540;-72
2021/05/03 12:12:34;;;;;;;5.43;2.83;;;18.30;48.20;;;;;;5077879;28;20482;-72
2021/05/03 12:15:00;;;;;;;5.03;4.10;;;18.30;48.40;;;;;;5082242;28;20509;-70
2021/05/03 12:17:28;;;;;;;8.43;3.17;;;18.40;48.20;;;;;;5076655;28;20988;-72
2021/05/03 12:19:56;;;;;;;3.60;3.30;;;18.40;48.40;;;;;;5075437;28;20477;-72
2021/05/03 12:22:25;;;;;;;6.50;4.67;;;17.90;47.90;;;;;;5082267;28;20505;-73
2021/05/03 12:24:54;;;;;;;10.83;3.97;;;17.50;48.80;;;;;;5074553;28;20564;-72
2021/05/03 12:27:22;;;;;;;5.00;4.00;;;17.50;49.30;;;;;;5076591;28;20454;-71
2021/05/03 12:29:51;;;;;;;4.90;3.43;;;17.20;49.60;;;;;;5076661;28;20479;-73
2021/05/03 12:32:19;;;;;;;2.80;2.50;;;17.30;49.30;;;;;;5063382;28;20458;-72
2021/05/03 12:34:49;;;;;;;6.53;4.40;;;17.20;48.70;;;;;;5087053;28;20893;-71
2021/05/03 12:37:21;;;;;;;3.53;2.53;;;17.20;49.40;;;;;;5077342;28;20463;-72
2021/05/03 12:40:04;;;;;;;5.67;3.43;;;17.20;48.90;;;;;;5081943;28;20480;-72
2021/05/03 12:42:43;;;;;;;4.67;3.00;;;17.20;49.50;;;;;;5079265;28;20957;-71
2021/05/03 12:45:22;;;;;;;4.37;3.30;;;17.10;49.60;;;;;;5075501;28;20481;-72
2021/05/03 12:50:53;;;;;;;5.17;4.00;;;17.50;49.90;;;;;;5050875;28;21322;-72
2021/05/03 12:53:25;;;;;;;4.70;3.90;;;17.30;50.30;;;;;;5076033;28;20522;-72
2021/05/03 12:56:10;;;;;;;4.63;3.83;;;17.30;50.70;;;;;;5059470;28;21035;-71
2021/05/03 12:58:41;;;;;;;8.80;4.00;;;17.00;51.20;;;;;;5079689;28;20483;-71
2021/05/03 13:01:32;;;;;;;7.20;4.30;;;16.70;51.00;;;;;;5061801;28;20503;-72
2021/05/03 13:04:07;;;;;;;6.03;3.73;;;16.60;51.40;;;;;;5077816;28;20565;-72
2021/05/03 13:06:44;;;;;;;4.80;3.50;;;17.20;51.70;;;;;;5078966;28;20875;-73
2021/05/03 13:09:46;;;;;;;5.77;3.83;;;17.30;50.70;;;;;;5057367;28;20448;-73
2021/05/03 13:29:42;;;;;;;4.03;3.03;;;17.30;52.40;;;;;;5078068;28;20445;-68